Terminal Aerodrome Forecast
Issued by NWS Denver/Boulder, CO

Home | Current Version | Previous Version | Text Only | Print | Product List | Glossary On
Versions: 1 2 3 4 5 6 7 8 9 10 11 12 13 14 15 16 17 18 19 20 21 22 23 24 25 26 27 28 29 30 31 32 33 34 35 36 37 38 39 40 41 42 43
000
FTUS45 KBOU 281918 AAB
TAFDEN
TAF AMD
KDEN 281918Z 2819/2924 10011KT P6SM BKN015 OVC025
      TEMPO 2819/2823 4SM -SHSN OVC015
     FM282300 14012KT 6SM -SHSN BKN014 OVC022
     FM290300 08008KT 3SM -SN BR BKN010 OVC014
      TEMPO 2905/2908 1 1/2SM -SN BR OVC009
     FM290800 06011KT 1SM -SN BR OVC008
     FM291300 03010KT 3/4SM -SN BR OVC005
     FM291800 02012KT 1 1/2SM -SNRA BR OVC010
     FM292300 02013G18KT 3SM -SNRA BR OVC015=

USA.gov is the U.S. government's official web portal to all federal, state and local government web resources and services.